Otoe, NE

1:15 PM CDT on August 20, 2014 (GMT -0500)
Offutt Air Force Base | Change Station
CLOSE
Current Station
Airport
Location: Omaha Offutt,
Elevation: 1047 ft
Nearby Weather Stations

Elev 1047 ft 41.12 °N, 95.91 °W | Updated 17 minutes ago

Partly Cloudy
Partly Cloudy
83 °F
Feels Like 91 °F
N
16
Wind Variable Wind from ESE

Today
High -- | Low -- °F
--% Chance of Precip.
Yesterday
High -- | Low -- °F
Precip. -- in
6:39 AM 8:15 PM
Waning Crescent, 20% visible
Pressure 29.83 in
Visibility 10.0 miles
Clouds Few 21000 ft
Heat Index 91 °F
Dew Point 75 °F
Humidity 76%
Rainfall 0.00 in
Snow Depth Not available.
UV 9 out of 12
Pollen 10.70 out of 12
Air Quality Not available.
Flu Activity Not available.
METAR KOFF 201758Z AUTO 12014KT 10SM FEW210 29/24 A2984 RMK AO2 SLP100 T02850238 10285 20229 58006

More Conditions Fewer Conditions

Pressure 29.83 in
Visibility 10.0 miles
Clouds Few 21000 ft
Heat Index 91 °F
Dew Point 75 °F
Humidity 76%
Rainfall 0.00 in
Snow Depth Not available.
UV 9 out of 12
Pollen 10.70 out of 12
Air Quality Not available.
Flu Activity Not available.
METAR KOFF 201758Z AUTO 12014KT 10SM FEW210 29/24 A2984 RMK AO2 SLP100 T02850238 10285 20229 58006

More Conditions Fewer Conditions

10-Day Weather Forecast

Almanac

Astronomy

Aug. 20, 2014 Rise Set
Actual Time 6:39 AM CDT 8:15 PM CDT
Civil Twilight 6:10 AM CDT 8:44 PM CDT
Nautical Twilight 5:35 AM CDT 9:18 PM CDT
Astronomical Twilight 4:58 AM CDT 9:56 PM CDT
Moon 2:19 AM CDT 5:01 PM CDT
Length of Visible Light 14h 33m
Length of Day
13h 35m
Tomorrow will be 2m 28s shorter.
Waning Crescent, 20% of the Moon is Illuminated
Today
Waning Crescent
Aug 25
New
Sep 2
First Quarter
Sep 8
Full
Sep 15
Last Quarter

Today's Extremes

State Highs State Lows

Community

WunderPhotos

Upload Photos

1,745,703 photos uploaded!

WunderBlogs® & News

Nearby

Snow Depth

Station Depth Elevation
No new snow has been reported.

Earthquake Activity

City Distance Mag. Time & Date
No recent earthquake activity has been reported nearby.
Minimum magnitude displayed is 2.5.

Coastal Water Temperatures

Place Temperature
No Stations Reporting

Nearby Weather Stations